sensor_id;sensor_type;location;lat;lon;timestamp;P1;durP1;ratioP1;P2;durP2;ratioP2
52964;SDS011;42923;53.220;6.528;2022-12-07T00:01:13;4.80;;;1.55;;
52964;SDS011;42923;53.220;6.528;2022-12-07T00:03:40;9.40;;;1.48;;
52964;SDS011;42923;53.220;6.528;2022-12-07T00:06:08;1.83;;;1.00;;
52964;SDS011;42923;53.220;6.528;2022-12-07T00:08:35;7.63;;;1.60;;
52964;SDS011;42923;53.220;6.528;2022-12-07T00:11:09;2.13;;;0.82;;
52964;SDS011;42923;53.220;6.528;2022-12-07T00:13:37;3.63;;;1.25;;
52964;SDS011;42923;53.220;6.528;2022-12-07T00:16:04;7.80;;;1.25;;
52964;SDS011;42923;53.220;6.528;2022-12-07T00:18:35;5.93;;;1.10;;
52964;SDS011;42923;53.220;6.528;2022-12-07T00:21:03;5.03;;;0.80;;
52964;SDS011;42923;53.220;6.528;2022-12-07T00:23:30;6.82;;;0.85;;
52964;SDS011;42923;53.220;6.528;2022-12-07T00:26:03;6.25;;;1.65;;
52964;SDS011;42923;53.220;6.528;2022-12-07T00:28:29;4.95;;;1.15;;
52964;SDS011;42923;53.220;6.528;2022-12-07T00:31:08;2.30;;;1.02;;
52964;SDS011;42923;53.220;6.528;2022-12-07T00:33:36;3.78;;;1.52;;
52964;SDS011;42923;53.220;6.528;2022-12-07T00:36:04;3.42;;;2.40;;
52964;SDS011;42923;53.220;6.528;2022-12-07T00:38:32;8.70;;;1.50;;
52964;SDS011;42923;53.220;6.528;2022-12-07T00:41:03;7.55;;;0.90;;
52964;SDS011;42923;53.220;6.528;2022-12-07T00:43:30;8.25;;;0.90;;
52964;SDS011;42923;53.220;6.528;2022-12-07T00:45:57;7.18;;;1.10;;
52964;SDS011;42923;53.220;6.528;2022-12-07T00:48:23;2.72;;;0.90;;
52964;SDS011;42923;53.220;6.528;2022-12-07T00:50:49;7.97;;;1.73;;
52964;SDS011;42923;53.220;6.528;2022-12-07T00:53:15;2.90;;;1.17;;
52964;SDS011;42923;53.220;6.528;2022-12-07T00:55:41;4.50;;;0.80;;
52964;SDS011;42923;53.220;6.528;2022-12-07T00:58:08;2.33;;;1.00;;
52964;SDS011;42923;53.220;6.528;2022-12-07T01:00:38;4.00;;;0.70;;
52964;SDS011;42923;53.220;6.528;2022-12-07T01:03:05;5.93;;;0.75;;
52964;SDS011;42923;53.220;6.528;2022-12-07T01:05:32;5.65;;;0.95;;
52964;SDS011;42923;53.220;6.528;2022-12-07T01:07:58;6.43;;;0.90;;
52964;SDS011;42923;53.220;6.528;2022-12-07T01:10:24;5.43;;;1.30;;
52964;SDS011;42923;53.220;6.528;2022-12-07T01:12:50;2.65;;;0.73;;
52964;SDS011;42923;53.220;6.528;2022-12-07T01:15:16;2.80;;;0.63;;
52964;SDS011;42923;53.220;6.528;2022-12-07T01:17:42;3.15;;;1.10;;
52964;SDS011;42923;53.220;6.528;2022-12-07T01:20:08;2.92;;;0.77;;
52964;SDS011;42923;53.220;6.528;2022-12-07T01:22:37;2.53;;;0.70;;
52964;SDS011;42923;53.220;6.528;2022-12-07T01:25:04;7.22;;;2.25;;
52964;SDS011;42923;53.220;6.528;2022-12-07T01:27:31;4.70;;;0.75;;
52964;SDS011;42923;53.220;6.528;2022-12-07T01:29:58;2.70;;;0.45;;
52964;SDS011;42923;53.220;6.528;2022-12-07T01:32:24;2.03;;;0.55;;
52964;SDS011;42923;53.220;6.528;2022-12-07T01:34:49;3.65;;;0.70;;
52964;SDS011;42923;53.220;6.528;2022-12-07T01:37:15;6.32;;;1.30;;
52964;SDS011;42923;53.220;6.528;2022-12-07T01:39:41;4.72;;;0.93;;
52964;SDS011;42923;53.220;6.528;2022-12-07T01:42:10;5.28;;;0.98;;
52964;SDS011;42923;53.220;6.528;2022-12-07T01:47:40;10.43;;;1.08;;
52964;SDS011;42923;53.220;6.528;2022-12-07T01:50:08;2.33;;;0.63;;
52964;SDS011;42923;53.220;6.528;2022-12-07T01:52:34;16.25;;;1.33;;
52964;SDS011;42923;53.220;6.528;2022-12-07T01:55:04;7.13;;;0.93;;
52964;SDS011;42923;53.220;6.528;2022-12-07T01:57:34;2.92;;;0.68;;
52964;SDS011;42923;53.220;6.528;2022-12-07T02:00:05;11.23;;;1.02;;
52964;SDS011;42923;53.220;6.528;2022-12-07T02:02:43;5.07;;;0.98;;
52964;SDS011;42923;53.220;6.528;2022-12-07T02:05:12;8.23;;;1.20;;
52964;SDS011;42923;53.220;6.528;2022-12-07T02:07:38;4.15;;;1.77;;
52964;SDS011;42923;53.220;6.528;2022-12-07T02:10:14;4.50;;;0.65;;
52964;SDS011;42923;53.220;6.528;2022-12-07T02:12:46;2.90;;;1.00;;
52964;SDS011;42923;53.220;6.528;2022-12-07T02:15:15;2.80;;;0.60;;
52964;SDS011;42923;53.220;6.528;2022-12-07T02:17:49;6.28;;;1.10;;
52964;SDS011;42923;53.220;6.528;2022-12-07T02:28:12;11.25;;;1.60;;
52964;SDS011;42923;53.220;6.528;2022-12-07T02:31:14;10.77;;;1.30;;
52964;SDS011;42923;53.220;6.528;2022-12-07T02:33:45;15.70;;;1.50;;
52964;SDS011;42923;53.220;6.528;2022-12-07T02:36:32;1.88;;;0.60;;
52964;SDS011;42923;53.220;6.528;2022-12-07T02:39:07;2.40;;;0.75;;
52964;SDS011;42923;53.220;6.528;2022-12-07T02:41:40;2.78;;;0.88;;
52964;SDS011;42923;53.220;6.528;2022-12-07T02:44:10;4.25;;;1.02;;
52964;SDS011;42923;53.220;6.528;2022-12-07T02:47:23;6.72;;;1.13;;
52964;SDS011;42923;53.220;6.528;2022-12-07T02:49:33;5.90;;;0.98;;
52964;SDS011;42923;53.220;6.528;2022-12-07T02:52:01;2.30;;;0.77;;
52964;SDS011;42923;53.220;6.528;2022-12-07T02:54:28;5.18;;;1.88;;
52964;SDS011;42923;53.220;6.528;2022-12-07T03:08:02;3.60;;;0.50;;
52964;SDS011;42923;53.220;6.528;2022-12-07T03:18:53;2.85;;;0.60;;
52964;SDS011;42923;53.220;6.528;2022-12-07T03:21:42;1.00;;;0.60;;
52964;SDS011;42923;53.220;6.528;2022-12-07T03:24:13;9.70;;;0.68;;
52964;SDS011;42923;53.220;6.528;2022-12-07T03:26:43;1.20;;;0.47;;
52964;SDS011;42923;53.220;6.528;2022-12-07T03:29:17;8.07;;;0.65;;
52964;SDS011;42923;53.220;6.528;2022-12-07T03:31:48;3.60;;;0.93;;
52964;SDS011;42923;53.220;6.528;2022-12-07T03:37:00;5.05;;;0.82;;
52964;SDS011;42923;53.220;6.528;2022-12-07T03:42:27;11.80;;;1.67;;
52964;SDS011;42923;53.220;6.528;2022-12-07T03:44:54;5.40;;;0.60;;
52964;SDS011;42923;53.220;6.528;2022-12-07T03:47:30;10.10;;;1.38;;
52964;SDS011;42923;53.220;6.528;2022-12-07T03:50:07;4.20;;;0.75;;
52964;SDS011;42923;53.220;6.528;2022-12-07T03:55:32;6.55;;;1.17;;
52964;SDS011;42923;53.220;6.528;2022-12-07T03:58:04;6.50;;;1.10;;
52964;SDS011;42923;53.220;6.528;2022-12-07T04:00:32;4.70;;;1.30;;
52964;SDS011;42923;53.220;6.528;2022-12-07T04:02:58;3.78;;;0.73;;
52964;SDS011;42923;53.220;6.528;2022-12-07T04:05:24;3.97;;;1.10;;
52964;SDS011;42923;53.220;6.528;2022-12-07T04:07:50;8.93;;;0.80;;
52964;SDS011;42923;53.220;6.528;2022-12-07T04:10:16;2.20;;;0.70;;
52964;SDS011;42923;53.220;6.528;2022-12-07T04:12:42;4.63;;;0.95;;
52964;SDS011;42923;53.220;6.528;2022-12-07T04:15:08;8.65;;;0.85;;
52964;SDS011;42923;53.220;6.528;2022-12-07T04:17:34;3.22;;;1.10;;
52964;SDS011;42923;53.220;6.528;2022-12-07T04:20:00;8.63;;;1.48;;
52964;SDS011;42923;53.220;6.528;2022-12-07T04:22:26;2.38;;;0.60;;
52964;SDS011;42923;53.220;6.528;2022-12-07T04:24:52;6.38;;;2.10;;
52964;SDS011;42923;53.220;6.528;2022-12-07T04:27:17;8.52;;;1.02;;
52964;SDS011;42923;53.220;6.528;2022-12-07T04:29:43;7.18;;;1.15;;
52964;SDS011;42923;53.220;6.528;2022-12-07T04:32:09;5.53;;;0.82;;
52964;SDS011;42923;53.220;6.528;2022-12-07T04:34:35;5.78;;;1.08;;
52964;SDS011;42923;53.220;6.528;2022-12-07T04:37:00;11.85;;;1.55;;
52964;SDS011;42923;53.220;6.528;2022-12-07T04:39:30;13.63;;;1.27;;
52964;SDS011;42923;53.220;6.528;2022-12-07T04:41:57;3.03;;;1.45;;
52964;SDS011;42923;53.220;6.528;2022-12-07T04:44:24;4.65;;;1.65;;
52964;SDS011;42923;53.220;6.528;2022-12-07T04:46:50;3.70;;;0.68;;
52964;SDS011;42923;53.220;6.528;2022-12-07T04:49:17;7.18;;;0.52;;
52964;SDS011;42923;53.220;6.528;2022-12-07T04:51:43;14.07;;;1.35;;
52964;SDS011;42923;53.220;6.528;2022-12-07T04:54:09;7.47;;;1.00;;
52964;SDS011;42923;53.220;6.528;2022-12-07T04:56:35;13.23;;;1.35;;
52964;SDS011;42923;53.220;6.528;2022-12-07T04:59:01;3.63;;;0.73;;
52964;SDS011;42923;53.220;6.528;2022-12-07T05:01:27;8.45;;;1.63;;
52964;SDS011;42923;53.220;6.528;2022-12-07T05:03:53;5.00;;;0.80;;
52964;SDS011;42923;53.220;6.528;2022-12-07T05:06:19;11.07;;;1.30;;
52964;SDS011;42923;53.220;6.528;2022-12-07T05:08:45;3.03;;;0.80;;
52964;SDS011;42923;53.220;6.528;2022-12-07T05:11:11;13.18;;;1.17;;
52964;SDS011;42923;53.220;6.528;2022-12-07T05:13:58;3.28;;;0.90;;
52964;SDS011;42923;53.220;6.528;2022-12-07T05:16:23;4.88;;;1.02;;
52964;SDS011;42923;53.220;6.528;2022-12-07T05:18:49;5.25;;;0.98;;
52964;SDS011;42923;53.220;6.528;2022-12-07T05:21:15;4.18;;;0.80;;
52964;SDS011;42923;53.220;6.528;2022-12-07T05:23:41;9.95;;;1.75;;
52964;SDS011;42923;53.220;6.528;2022-12-07T05:26:07;3.53;;;1.35;;
52964;SDS011;42923;53.220;6.528;2022-12-07T05:28:32;4.32;;;1.33;;
52964;SDS011;42923;53.220;6.528;2022-12-07T05:30:58;2.67;;;0.82;;
52964;SDS011;42923;53.220;6.528;2022-12-07T05:33:24;2.85;;;0.80;;
52964;SDS011;42923;53.220;6.528;2022-12-07T05:35:49;13.00;;;2.08;;
52964;SDS011;42923;53.220;6.528;2022-12-07T05:38:15;5.63;;;1.25;;
52964;SDS011;42923;53.220;6.528;2022-12-07T05:40:41;6.75;;;0.90;;
52964;SDS011;42923;53.220;6.528;2022-12-07T05:43:07;2.20;;;0.80;;
52964;SDS011;42923;53.220;6.528;2022-12-07T05:45:32;5.03;;;1.10;;
52964;SDS011;42923;53.220;6.528;2022-12-07T05:47:58;7.03;;;1.25;;
52964;SDS011;42923;53.220;6.528;2022-12-07T05:50:24;6.63;;;1.20;;
52964;SDS011;42923;53.220;6.528;2022-12-07T05:52:59;6.25;;;1.27;;
52964;SDS011;42923;53.220;6.528;2022-12-07T05:55:25;6.38;;;1.38;;
52964;SDS011;42923;53.220;6.528;2022-12-07T05:57:50;16.25;;;1.92;;
52964;SDS011;42923;53.220;6.528;2022-12-07T06:00:35;10.75;;;1.80;;
52964;SDS011;42923;53.220;6.528;2022-12-07T06:03:01;7.78;;;1.52;;
52964;SDS011;42923;53.220;6.528;2022-12-07T06:05:26;7.88;;;1.48;;
52964;SDS011;42923;53.220;6.528;2022-12-07T06:07:52;7.40;;;0.73;;
52964;SDS011;42923;53.220;6.528;2022-12-07T06:10:18;2.92;;;0.50;;
52964;SDS011;42923;53.220;6.528;2022-12-07T06:12:44;12.48;;;1.52;;
52964;SDS011;42923;53.220;6.528;2022-12-07T06:15:11;0.57;;;0.28;;
52964;SDS011;42923;53.220;6.528;2022-12-07T06:17:38;6.90;;;1.63;;
52964;SDS011;42923;53.220;6.528;2022-12-07T06:20:04;7.78;;;0.90;;
52964;SDS011;42923;53.220;6.528;2022-12-07T06:22:31;8.48;;;1.58;;
52964;SDS011;42923;53.220;6.528;2022-12-07T06:24:56;11.35;;;1.17;;
52964;SDS011;42923;53.220;6.528;2022-12-07T06:27:22;2.78;;;1.15;;
52964;SDS011;42923;53.220;6.528;2022-12-07T06:29:48;6.57;;;1.52;;
52964;SDS011;42923;53.220;6.528;2022-12-07T06:32:13;10.23;;;3.22;;
52964;SDS011;42923;53.220;6.528;2022-12-07T06:34:39;6.05;;;1.52;;
52964;SDS011;42923;53.220;6.528;2022-12-07T06:37:05;6.75;;;1.85;;
52964;SDS011;42923;53.220;6.528;2022-12-07T06:39:31;5.13;;;2.72;;
52964;SDS011;42923;53.220;6.528;2022-12-07T06:41:57;16.92;;;2.28;;
52964;SDS011;42923;53.220;6.528;2022-12-07T06:44:23;4.38;;;1.02;;
52964;SDS011;42923;53.220;6.528;2022-12-07T06:46:49;6.00;;;1.17;;
52964;SDS011;42923;53.220;6.528;2022-12-07T06:49:16;4.15;;;0.85;;
52964;SDS011;42923;53.220;6.528;2022-12-07T06:51:42;5.88;;;1.00;;
52964;SDS011;42923;53.220;6.528;2022-12-07T06:54:09;5.85;;;1.23;;
52964;SDS011;42923;53.220;6.528;2022-12-07T06:56:36;1.60;;;0.80;;
52964;SDS011;42923;53.220;6.528;2022-12-07T06:59:03;5.85;;;1.00;;
52964;SDS011;42923;53.220;6.528;2022-12-07T07:01:31;3.00;;;0.90;;
52964;SDS011;42923;53.220;6.528;2022-12-07T07:03:57;2.75;;;1.15;;
52964;SDS011;42923;53.220;6.528;2022-12-07T07:06:23;0.93;;;0.93;;
52964;SDS011;42923;53.220;6.528;2022-12-07T07:08:49;5.88;;;0.95;;
52964;SDS011;42923;53.220;6.528;2022-12-07T07:11:15;0.40;;;0.40;;
52964;SDS011;42923;53.220;6.528;2022-12-07T07:13:41;6.15;;;0.88;;
52964;SDS011;42923;53.220;6.528;2022-12-07T07:16:06;5.50;;;1.13;;
52964;SDS011;42923;53.220;6.528;2022-12-07T07:18:33;2.85;;;2.00;;
52964;SDS011;42923;53.220;6.528;2022-12-07T07:20:58;3.72;;;0.70;;
52964;SDS011;42923;53.220;6.528;2022-12-07T07:23:24;8.35;;;1.33;;
52964;SDS011;42923;53.220;6.528;2022-12-07T07:25:50;7.30;;;1.52;;
52964;SDS011;42923;53.220;6.528;2022-12-07T07:28:16;4.45;;;1.27;;
52964;SDS011;42923;53.220;6.528;2022-12-07T07:30:42;11.90;;;2.13;;
52964;SDS011;42923;53.220;6.528;2022-12-07T07:33:08;12.73;;;1.98;;
52964;SDS011;42923;53.220;6.528;2022-12-07T07:35:35;9.77;;;1.45;;
52964;SDS011;42923;53.220;6.528;2022-12-07T07:38:01;10.95;;;1.73;;
52964;SDS011;42923;53.220;6.528;2022-12-07T07:40:27;11.80;;;1.77;;
52964;SDS011;42923;53.220;6.528;2022-12-07T07:42:57;7.68;;;1.55;;
52964;SDS011;42923;53.220;6.528;2022-12-07T07:45:23;7.50;;;1.63;;
52964;SDS011;42923;53.220;6.528;2022-12-07T07:47:50;10.13;;;2.67;;
52964;SDS011;42923;53.220;6.528;2022-12-07T07:50:17;7.30;;;1.40;;
52964;SDS011;42923;53.220;6.528;2022-12-07T07:52:43;6.95;;;1.35;;
52964;SDS011;42923;53.220;6.528;2022-12-07T07:55:09;4.65;;;1.23;;
52964;SDS011;42923;53.220;6.528;2022-12-07T07:57:35;11.85;;;1.63;;
52964;SDS011;42923;53.220;6.528;2022-12-07T08:00:07;8.82;;;1.17;;
52964;SDS011;42923;53.220;6.528;2022-12-07T08:02:37;15.55;;;1.65;;
52964;SDS011;42923;53.220;6.528;2022-12-07T08:05:03;3.72;;;1.17;;
52964;SDS011;42923;53.220;6.528;2022-12-07T08:07:29;9.85;;;1.95;;
52964;SDS011;42923;53.220;6.528;2022-12-07T08:09:55;9.68;;;1.88;;
52964;SDS011;42923;53.220;6.528;2022-12-07T08:12:21;10.05;;;1.90;;
52964;SDS011;42923;53.220;6.528;2022-12-07T08:14:47;11.15;;;1.58;;
52964;SDS011;42923;53.220;6.528;2022-12-07T08:17:12;7.72;;;2.30;;
52964;SDS011;42923;53.220;6.528;2022-12-07T08:19:38;9.32;;;1.50;;
52964;SDS011;42923;53.220;6.528;2022-12-07T08:22:04;5.57;;;1.27;;
52964;SDS011;42923;53.220;6.528;2022-12-07T08:24:32;6.28;;;1.90;;
52964;SDS011;42923;53.220;6.528;2022-12-07T08:26:58;19.67;;;2.10;;
52964;SDS011;42923;53.220;6.528;2022-12-07T08:29:24;12.30;;;2.92;;
52964;SDS011;42923;53.220;6.528;2022-12-07T08:31:50;8.27;;;2.30;;
52964;SDS011;42923;53.220;6.528;2022-12-07T08:34:15;5.22;;;2.08;;
52964;SDS011;42923;53.220;6.528;2022-12-07T08:36:41;2.60;;;0.50;;
52964;SDS011;42923;53.220;6.528;2022-12-07T08:39:07;3.08;;;0.82;;
52964;SDS011;42923;53.220;6.528;2022-12-07T08:41:33;23.98;;;2.40;;
52964;SDS011;42923;53.220;6.528;2022-12-07T08:43:59;11.35;;;1.52;;
52964;SDS011;42923;53.220;6.528;2022-12-07T08:46:32;9.43;;;1.42;;
52964;SDS011;42923;53.220;6.528;2022-12-07T08:49:19;4.10;;;1.10;;
52964;SDS011;42923;53.220;6.528;2022-12-07T08:54:16;17.42;;;2.03;;
52964;SDS011;42923;53.220;6.528;2022-12-07T08:56:43;11.15;;;1.83;;
52964;SDS011;42923;53.220;6.528;2022-12-07T08:59:10;9.10;;;1.50;;
52964;SDS011;42923;53.220;6.528;2022-12-07T09:01:39;7.00;;;1.70;;
52964;SDS011;42923;53.220;6.528;2022-12-07T09:04:05;12.57;;;1.60;;
52964;SDS011;42923;53.220;6.528;2022-12-07T09:06:31;15.18;;;1.70;;
52964;SDS011;42923;53.220;6.528;2022-12-07T09:08:57;6.07;;;1.35;;
52964;SDS011;42923;53.220;6.528;2022-12-07T09:11:25;5.03;;;1.23;;
52964;SDS011;42923;53.220;6.528;2022-12-07T09:13:51;2.03;;;0.75;;
52964;SDS011;42923;53.220;6.528;2022-12-07T09:16:17;8.65;;;1.20;;
52964;SDS011;42923;53.220;6.528;2022-12-07T09:18:43;2.80;;;0.52;;
52964;SDS011;42923;53.220;6.528;2022-12-07T09:21:08;5.55;;;0.95;;
52964;SDS011;42923;53.220;6.528;2022-12-07T09:23:35;4.55;;;0.98;;
52964;SDS011;42923;53.220;6.528;2022-12-07T09:26:01;7.25;;;1.17;;
52964;SDS011;42923;53.220;6.528;2022-12-07T09:28:28;1.33;;;0.43;;
52964;SDS011;42923;53.220;6.528;2022-12-07T09:30:55;1.83;;;0.40;;
52964;SDS011;42923;53.220;6.528;2022-12-07T09:33:20;1.02;;;0.38;;
52964;SDS011;42923;53.220;6.528;2022-12-07T09:35:47;2.92;;;0.40;;
52964;SDS011;42923;53.220;6.528;2022-12-07T09:38:14;2.83;;;1.05;;
52964;SDS011;42923;53.220;6.528;2022-12-07T09:40:40;1.00;;;0.65;;
52964;SDS011;42923;53.220;6.528;2022-12-07T09:43:12;5.88;;;0.75;;
52964;SDS011;42923;53.220;6.528;2022-12-07T09:45:40;3.97;;;1.20;;
52964;SDS011;42923;53.220;6.528;2022-12-07T09:48:11;3.05;;;1.77;;
52964;SDS011;42923;53.220;6.528;2022-12-07T09:50:45;7.18;;;1.50;;
52964;SDS011;42923;53.220;6.528;2022-12-07T09:53:19;3.42;;;0.90;;
52964;SDS011;42923;53.220;6.528;2022-12-07T09:55:50;6.25;;;1.00;;
52964;SDS011;42923;53.220;6.528;2022-12-07T09:58:19;3.78;;;0.77;;
52964;SDS011;42923;53.220;6.528;2022-12-07T10:03:37;7.65;;;1.05;;
52964;SDS011;42923;53.220;6.528;2022-12-07T10:06:04;5.00;;;1.17;;
52964;SDS011;42923;53.220;6.528;2022-12-07T10:08:31;7.68;;;1.25;;
52964;SDS011;42923;53.220;6.528;2022-12-07T10:10:57;3.58;;;1.40;;
52964;SDS011;42923;53.220;6.528;2022-12-07T10:13:39;8.77;;;1.55;;
52964;SDS011;42923;53.220;6.528;2022-12-07T10:19:17;7.93;;;1.27;;
52964;SDS011;42923;53.220;6.528;2022-12-07T10:24:24;9.80;;;1.52;;
52964;SDS011;42923;53.220;6.528;2022-12-07T10:26:51;3.63;;;1.27;;
52964;SDS011;42923;53.220;6.528;2022-12-07T10:32:02;12.25;;;1.45;;
52964;SDS011;42923;53.220;6.528;2022-12-07T10:34:47;4.55;;;1.30;;
52964;SDS011;42923;53.220;6.528;2022-12-07T10:42:19;6.18;;;1.20;;
52964;SDS011;42923;53.220;6.528;2022-12-07T10:44:50;7.28;;;1.52;;
52964;SDS011;42923;53.220;6.528;2022-12-07T10:55:33;5.85;;;1.95;;
52964;SDS011;42923;53.220;6.528;2022-12-07T10:58:14;3.55;;;0.90;;
52964;SDS011;42923;53.220;6.528;2022-12-07T11:15:16;6.05;;;2.15;;
52964;SDS011;42923;53.220;6.528;2022-12-07T11:23:35;2.83;;;1.40;;
52964;SDS011;42923;53.220;6.528;2022-12-07T11:29:15;3.78;;;0.68;;
52964;SDS011;42923;53.220;6.528;2022-12-07T11:37:33;3.22;;;0.90;;
52964;SDS011;42923;53.220;6.528;2022-12-07T11:40:02;5.32;;;0.70;;
52964;SDS011;42923;53.220;6.528;2022-12-07T11:42:59;3.58;;;1.05;;
52964;SDS011;42923;53.220;6.528;2022-12-07T11:45:34;5.30;;;0.73;;
52964;SDS011;42923;53.220;6.528;2022-12-07T11:48:16;2.78;;;1.73;;
52964;SDS011;42923;53.220;6.528;2022-12-07T11:50:50;5.53;;;0.82;;
52964;SDS011;42923;53.220;6.528;2022-12-07T11:53:20;1.08;;;0.45;;
52964;SDS011;42923;53.220;6.528;2022-12-07T12:06:36;5.78;;;1.00;;
52964;SDS011;42923;53.220;6.528;2022-12-07T12:09:11;1.17;;;0.57;;
52964;SDS011;42923;53.220;6.528;2022-12-07T12:14:19;5.45;;;0.80;;
52964;SDS011;42923;53.220;6.528;2022-12-07T12:22:45;12.45;;;1.27;;
52964;SDS011;42923;53.220;6.528;2022-12-07T12:27:54;4.07;;;0.70;;
52964;SDS011;42923;53.220;6.528;2022-12-07T12:33:05;4.57;;;1.33;;
52964;SDS011;42923;53.220;6.528;2022-12-07T12:35:47;6.18;;;1.30;;
52964;SDS011;42923;53.220;6.528;2022-12-07T12:51:52;0.32;;;0.32;;
52964;SDS011;42923;53.220;6.528;2022-12-07T12:54:37;6.60;;;0.93;;
52964;SDS011;42923;53.220;6.528;2022-12-07T13:02:32;3.85;;;0.82;;
52964;SDS011;42923;53.220;6.528;2022-12-07T13:15:44;1.55;;;0.60;;
52964;SDS011;42923;53.220;6.528;2022-12-07T13:18:24;2.58;;;1.25;;
52964;SDS011;42923;53.220;6.528;2022-12-07T13:20:57;8.02;;;1.20;;
52964;SDS011;42923;53.220;6.528;2022-12-07T13:26:14;3.55;;;0.77;;
52964;SDS011;42923;53.220;6.528;2022-12-07T13:36:55;1.13;;;0.60;;
52964;SDS011;42923;53.220;6.528;2022-12-07T13:39:23;6.18;;;0.80;;
52964;SDS011;42923;53.220;6.528;2022-12-07T13:41:51;1.85;;;0.30;;
52964;SDS011;42923;53.220;6.528;2022-12-07T13:44:22;0.55;;;0.30;;
52964;SDS011;42923;53.220;6.528;2022-12-07T13:49:30;2.92;;;0.40;;
52964;SDS011;42923;53.220;6.528;2022-12-07T13:54:43;2.38;;;0.52;;
52964;SDS011;42923;53.220;6.528;2022-12-07T13:57:35;5.53;;;0.60;;
52964;SDS011;42923;53.220;6.528;2022-12-07T14:00:05;8.68;;;0.98;;
52964;SDS011;42923;53.220;6.528;2022-12-07T14:02:56;6.88;;;0.93;;
52964;SDS011;42923;53.220;6.528;2022-12-07T14:05:38;2.50;;;1.17;;
52964;SDS011;42923;53.220;6.528;2022-12-07T14:08:20;3.58;;;1.33;;
52964;SDS011;42923;53.220;6.528;2022-12-07T14:13:35;2.80;;;1.33;;
52964;SDS011;42923;53.220;6.528;2022-12-07T14:16:28;1.80;;;0.95;;
52964;SDS011;42923;53.220;6.528;2022-12-07T14:18:57;3.88;;;0.93;;
52964;SDS011;42923;53.220;6.528;2022-12-07T14:21:27;2.05;;;1.23;;
52964;SDS011;42923;53.220;6.528;2022-12-07T14:26:43;1.98;;;1.08;;
52964;SDS011;42923;53.220;6.528;2022-12-07T14:31:53;12.57;;;2.08;;
52964;SDS011;42923;53.220;6.528;2022-12-07T14:34:20;15.70;;;1.77;;
52964;SDS011;42923;53.220;6.528;2022-12-07T14:36:47;7.88;;;1.88;;
52964;SDS011;42923;53.220;6.528;2022-12-07T14:39:13;3.30;;;1.55;;
52964;SDS011;42923;53.220;6.528;2022-12-07T14:41:38;2.47;;;0.47;;
52964;SDS011;42923;53.220;6.528;2022-12-07T14:44:16;6.82;;;1.08;;
52964;SDS011;42923;53.220;6.528;2022-12-07T14:46:45;3.40;;;0.95;;
52964;SDS011;42923;53.220;6.528;2022-12-07T14:49:11;1.50;;;0.43;;
52964;SDS011;42923;53.220;6.528;2022-12-07T14:51:37;0.40;;;0.30;;
52964;SDS011;42923;53.220;6.528;2022-12-07T14:54:05;2.53;;;0.60;;
52964;SDS011;42923;53.220;6.528;2022-12-07T14:56:36;2.00;;;0.70;;
52964;SDS011;42923;53.220;6.528;2022-12-07T14:59:02;4.07;;;0.60;;
52964;SDS011;42923;53.220;6.528;2022-12-07T15:01:28;4.07;;;0.93;;
52964;SDS011;42923;53.220;6.528;2022-12-07T15:03:53;4.63;;;0.98;;
52964;SDS011;42923;53.220;6.528;2022-12-07T15:06:19;3.78;;;0.57;;
52964;SDS011;42923;53.220;6.528;2022-12-07T15:08:45;5.53;;;0.85;;
52964;SDS011;42923;53.220;6.528;2022-12-07T15:11:12;7.18;;;1.00;;
52964;SDS011;42923;53.220;6.528;2022-12-07T15:13:39;6.10;;;1.98;;
52964;SDS011;42923;53.220;6.528;2022-12-07T15:16:23;5.30;;;1.60;;
52964;SDS011;42923;53.220;6.528;2022-12-07T15:19:57;4.45;;;1.25;;
52964;SDS011;42923;53.220;6.528;2022-12-07T15:22:23;5.72;;;1.52;;
52964;SDS011;42923;53.220;6.528;2022-12-07T15:24:49;2.33;;;1.45;;
52964;SDS011;42923;53.220;6.528;2022-12-07T15:27:15;2.78;;;1.70;;
52964;SDS011;42923;53.220;6.528;2022-12-07T15:29:40;9.10;;;1.95;;
52964;SDS011;42923;53.220;6.528;2022-12-07T15:32:06;7.00;;;1.60;;
52964;SDS011;42923;53.220;6.528;2022-12-07T15:34:32;5.28;;;1.20;;
52964;SDS011;42923;53.220;6.528;2022-12-07T15:36:57;5.07;;;1.65;;
52964;SDS011;42923;53.220;6.528;2022-12-07T15:39:23;4.10;;;2.72;;
52964;SDS011;42923;53.220;6.528;2022-12-07T15:41:49;6.97;;;3.88;;
52964;SDS011;42923;53.220;6.528;2022-12-07T15:44:15;12.90;;;3.65;;
52964;SDS011;42923;53.220;6.528;2022-12-07T15:46:59;12.23;;;4.55;;
52964;SDS011;42923;53.220;6.528;2022-12-07T15:49:25;8.50;;;3.97;;
52964;SDS011;42923;53.220;6.528;2022-12-07T15:51:52;8.98;;;4.18;;
52964;SDS011;42923;53.220;6.528;2022-12-07T15:54:19;6.47;;;3.80;;
52964;SDS011;42923;53.220;6.528;2022-12-07T15:56:50;7.70;;;2.25;;
52964;SDS011;42923;53.220;6.528;2022-12-07T15:59:15;13.50;;;1.80;;
52964;SDS011;42923;53.220;6.528;2022-12-07T16:01:42;6.57;;;1.20;;
52964;SDS011;42923;53.220;6.528;2022-12-07T16:04:08;6.85;;;1.83;;
52964;SDS011;42923;53.220;6.528;2022-12-07T16:06:34;5.93;;;1.98;;
52964;SDS011;42923;53.220;6.528;2022-12-07T16:09:00;4.90;;;1.30;;
52964;SDS011;42923;53.220;6.528;2022-12-07T16:11:26;3.28;;;1.00;;
52964;SDS011;42923;53.220;6.528;2022-12-07T16:13:51;8.82;;;1.33;;
52964;SDS011;42923;53.220;6.528;2022-12-07T16:16:18;5.35;;;1.23;;
52964;SDS011;42923;53.220;6.528;2022-12-07T16:18:45;5.70;;;1.13;;
52964;SDS011;42923;53.220;6.528;2022-12-07T16:21:12;7.75;;;1.58;;
52964;SDS011;42923;53.220;6.528;2022-12-07T16:23:38;3.33;;;1.63;;
52964;SDS011;42923;53.220;6.528;2022-12-07T16:26:05;4.93;;;1.50;;
52964;SDS011;42923;53.220;6.528;2022-12-07T16:28:39;3.78;;;1.33;;
52964;SDS011;42923;53.220;6.528;2022-12-07T16:31:08;1.15;;;0.65;;
52964;SDS011;42923;53.220;6.528;2022-12-07T16:33:38;8.63;;;0.85;;
52964;SDS011;42923;53.220;6.528;2022-12-07T16:36:05;3.88;;;0.85;;
52964;SDS011;42923;53.220;6.528;2022-12-07T16:38:33;1.63;;;0.40;;
52964;SDS011;42923;53.220;6.528;2022-12-07T16:40:59;6.40;;;1.33;;
52964;SDS011;42923;53.220;6.528;2022-12-07T16:43:25;2.03;;;0.70;;
52964;SDS011;42923;53.220;6.528;2022-12-07T16:45:51;0.93;;;0.77;;
52964;SDS011;42923;53.220;6.528;2022-12-07T16:48:16;4.85;;;1.17;;
52964;SDS011;42923;53.220;6.528;2022-12-07T16:50:43;3.03;;;1.80;;
52964;SDS011;42923;53.220;6.528;2022-12-07T16:53:09;4.18;;;1.85;;
52964;SDS011;42923;53.220;6.528;2022-12-07T16:55:37;4.47;;;2.45;;
52964;SDS011;42923;53.220;6.528;2022-12-07T16:58:03;3.92;;;2.47;;
52964;SDS011;42923;53.220;6.528;2022-12-07T17:00:29;5.15;;;1.60;;
52964;SDS011;42923;53.220;6.528;2022-12-07T17:02:55;4.45;;;1.73;;
52964;SDS011;42923;53.220;6.528;2022-12-07T17:05:21;3.25;;;1.27;;
52964;SDS011;42923;53.220;6.528;2022-12-07T17:07:46;4.95;;;1.25;;
52964;SDS011;42923;53.220;6.528;2022-12-07T17:10:12;2.53;;;1.23;;
52964;SDS011;42923;53.220;6.528;2022-12-07T17:12:38;2.28;;;1.15;;
52964;SDS011;42923;53.220;6.528;2022-12-07T17:15:04;7.53;;;1.17;;
52964;SDS011;42923;53.220;6.528;2022-12-07T17:17:46;5.47;;;0.73;;
52964;SDS011;42923;53.220;6.528;2022-12-07T17:20:15;3.45;;;0.88;;
52964;SDS011;42923;53.220;6.528;2022-12-07T17:22:42;4.63;;;1.10;;
52964;SDS011;42923;53.220;6.528;2022-12-07T17:25:09;5.65;;;1.02;;
52964;SDS011;42923;53.220;6.528;2022-12-07T17:27:36;1.60;;;0.80;;
52964;SDS011;42923;53.220;6.528;2022-12-07T17:30:03;3.78;;;0.68;;
52964;SDS011;42923;53.220;6.528;2022-12-07T17:32:30;2.72;;;1.58;;
52964;SDS011;42923;53.220;6.528;2022-12-07T17:34:55;4.53;;;2.08;;
52964;SDS011;42923;53.220;6.528;2022-12-07T17:37:21;6.10;;;2.17;;
52964;SDS011;42923;53.220;6.528;2022-12-07T17:39:47;4.97;;;1.30;;
52964;SDS011;42923;53.220;6.528;2022-12-07T17:42:12;2.22;;;0.50;;
52964;SDS011;42923;53.220;6.528;2022-12-07T17:44:57;2.50;;;0.88;;
52964;SDS011;42923;53.220;6.528;2022-12-07T17:47:23;2.95;;;1.00;;
52964;SDS011;42923;53.220;6.528;2022-12-07T17:49:49;3.08;;;0.80;;